createdAt,value
2017-12-17T00:00:56.516Z,101110
2017-12-17T00:03:25.558Z,101092
2017-12-17T00:05:53.822Z,101108
2017-12-17T00:08:22.120Z,101114
2017-12-17T00:10:50.398Z,101117
2017-12-17T00:13:19.381Z,101112
2017-12-17T00:15:47.705Z,101115
2017-12-17T00:18:15.946Z,101110
2017-12-17T00:20:44.951Z,101116
2017-12-17T00:23:13.262Z,101119
2017-12-17T00:25:41.510Z,101116
2017-12-17T00:28:09.983Z,101121
2017-12-17T00:30:38.232Z,101133
2017-12-17T00:33:06.482Z,101133
2017-12-17T00:35:34.730Z,101134
2017-12-17T00:38:02.959Z,101143
2017-12-17T00:40:32.231Z,101132
2017-12-17T00:43:00.453Z,101137
2017-12-17T00:45:29.457Z,101133
2017-12-17T00:47:58.473Z,101140
2017-12-17T00:50:26.710Z,101143
2017-12-17T00:52:54.981Z,101158
2017-12-17T00:55:23.235Z,101153
2017-12-17T00:57:52.344Z,101154
2017-12-17T01:00:20.589Z,101157
2017-12-17T01:02:48.945Z,101152
2017-12-17T01:05:17.222Z,101165
2017-12-17T01:07:45.523Z,101168
2017-12-17T01:10:13.770Z,101158
2017-12-17T01:12:42.005Z,101164
2017-12-17T01:15:10.281Z,101166
2017-12-17T01:17:38.547Z,101168
2017-12-17T01:20:06.796Z,101162
2017-12-17T01:22:35.064Z,101169
2017-12-17T01:25:03.270Z,101164
2017-12-17T01:27:31.501Z,101164
2017-12-17T01:29:59.743Z,101166
2017-12-17T01:32:27.961Z,101174
2017-12-17T01:35:08.101Z,101179
2017-12-17T01:37:36.319Z,101182
2017-12-17T01:40:04.530Z,101184
2017-12-17T01:42:33.521Z,101186
2017-12-17T01:45:01.832Z,101184
2017-12-17T01:47:30.051Z,101190
2017-12-17T01:49:58.266Z,101196
2017-12-17T01:52:26.515Z,101195
2017-12-17T01:54:55.540Z,101200
2017-12-17T01:57:24.590Z,101214
2017-12-17T01:59:52.842Z,101211
2017-12-17T02:02:21.066Z,101225
2017-12-17T02:04:49.310Z,101228
2017-12-17T02:07:17.509Z,101223
2017-12-17T02:09:45.727Z,101221
2017-12-17T02:12:13.945Z,101233
2017-12-17T02:14:42.175Z,101238
2017-12-17T02:17:10.473Z,101235
2017-12-17T02:19:38.707Z,101242
2017-12-17T02:22:07.791Z,101237
2017-12-17T02:24:36.811Z,101243
2017-12-17T02:27:05.035Z,101238
2017-12-17T02:29:33.309Z,101240
2017-12-17T02:32:01.584Z,101241
2017-12-17T02:34:29.865Z,101251
2017-12-17T02:36:58.079Z,101253
2017-12-17T02:39:27.133Z,101261
2017-12-17T02:41:55.326Z,101263
2017-12-17T02:44:23.602Z,101264
2017-12-17T02:46:51.823Z,101262
2017-12-17T02:49:20.100Z,101269
2017-12-17T02:51:48.345Z,101277
2017-12-17T02:54:16.562Z,101277
2017-12-17T02:56:44.804Z,101279
2017-12-17T02:59:13.030Z,101282
2017-12-17T03:01:41.352Z,101278
2017-12-17T03:04:09.583Z,101286
2017-12-17T03:06:37.881Z,101289
2017-12-17T03:09:06.100Z,101293
2017-12-17T03:11:34.354Z,101301
2017-12-17T03:14:02.585Z,101301
2017-12-17T03:16:30.840Z,101306
2017-12-17T03:18:59.067Z,101310
2017-12-17T03:21:27.292Z,101312
2017-12-17T03:23:55.588Z,101320
2017-12-17T03:26:23.836Z,101320
2017-12-17T03:28:52.086Z,101318
2017-12-17T03:31:20.328Z,101321
2017-12-17T03:33:48.556Z,101326
2017-12-17T03:36:16.854Z,101330
2017-12-17T03:38:45.059Z,101327
2017-12-17T03:41:13.263Z,101337
2017-12-17T03:43:42.259Z,101331
2017-12-17T03:46:10.483Z,101336
2017-12-17T03:48:38.709Z,101339
2017-12-17T03:51:06.941Z,101349
2017-12-17T03:53:35.278Z,101351
2017-12-17T03:56:03.437Z,101356
2017-12-17T03:58:31.678Z,101351
2017-12-17T04:00:59.886Z,101357
2017-12-17T04:03:28.873Z,101352
2017-12-17T04:05:57.871Z,101365
2017-12-17T04:08:26.094Z,101369
2017-12-17T04:10:54.323Z,101371
2017-12-17T04:13:23.350Z,101361
2017-12-17T04:15:51.694Z,101382
2017-12-17T04:18:21.340Z,101378
2017-12-17T04:20:49.546Z,101379
2017-12-17T04:23:17.792Z,101383
2017-12-17T04:25:45.998Z,101387
2017-12-17T04:28:14.254Z,101394
2017-12-17T04:30:42.507Z,101387
2017-12-17T04:33:10.813Z,101397
2017-12-17T04:35:39.007Z,101400
2017-12-17T04:38:07.252Z,101412
2017-12-17T04:40:35.519Z,101412
2017-12-17T04:43:03.718Z,101419
2017-12-17T04:45:31.946Z,101421
2017-12-17T04:48:00.252Z,101421
2017-12-17T04:50:28.563Z,101428
2017-12-17T04:52:56.798Z,101422
2017-12-17T04:55:25.037Z,101430
2017-12-17T04:57:54.004Z,101433
2017-12-17T05:00:22.879Z,101440
2017-12-17T05:02:51.127Z,101438
2017-12-17T05:05:19.338Z,101445
2017-12-17T05:07:47.597Z,101452
2017-12-17T05:10:15.873Z,101457
2017-12-17T05:12:44.098Z,101464
2017-12-17T05:15:13.095Z,101472
2017-12-17T05:17:41.330Z,101478
2017-12-17T05:20:09.608Z,101486
2017-12-17T05:22:37.870Z,101480
2017-12-17T05:25:06.081Z,101489
2017-12-17T05:27:35.050Z,101492
2017-12-17T05:30:03.260Z,101497
2017-12-17T05:32:31.502Z,101499
2017-12-17T05:34:59.769Z,101509
2017-12-17T05:37:28.018Z,101512
2017-12-17T05:39:56.325Z,101514
2017-12-17T05:42:24.574Z,101531
2017-12-17T05:44:52.784Z,101527
2017-12-17T05:47:21.041Z,101528
2017-12-17T05:49:49.233Z,101536
2017-12-17T05:52:17.444Z,101543
2017-12-17T05:54:45.720Z,101551
2017-12-17T05:57:14.692Z,101548
2017-12-17T05:59:42.986Z,101556
2017-12-17T06:02:11.982Z,101555
2017-12-17T06:04:41.342Z,101561
2017-12-17T06:07:09.558Z,101563
2017-12-17T06:09:37.787Z,101562
2017-12-17T06:12:06.078Z,101563
2017-12-17T06:14:34.335Z,101574
2017-12-17T06:17:02.546Z,101564
2017-12-17T06:19:31.522Z,101574
2017-12-17T06:21:59.772Z,101578
2017-12-17T06:24:28.003Z,101572
2017-12-17T06:26:57.041Z,101583
2017-12-17T06:29:25.275Z,101579
2017-12-17T06:31:53.491Z,101588
2017-12-17T06:34:21.703Z,101594
2017-12-17T06:36:49.919Z,101595
2017-12-17T06:39:18.167Z,101596
2017-12-17T06:41:47.132Z,101588
2017-12-17T06:44:15.382Z,101601
2017-12-17T06:46:43.634Z,101609
2017-12-17T06:49:11.858Z,101609
2017-12-17T06:51:40.075Z,101616
2017-12-17T06:54:08.311Z,101609
2017-12-17T06:56:36.555Z,101623
2017-12-17T06:59:04.755Z,101626
2017-12-17T07:01:33.008Z,101628
2017-12-17T07:04:01.284Z,101629
2017-12-17T07:06:29.510Z,101629
2017-12-17T07:08:58.503Z,101633
2017-12-17T07:11:27.491Z,101634
2017-12-17T07:13:55.702Z,101647
2017-12-17T07:16:23.955Z,101643
2017-12-17T07:18:52.271Z,101655
2017-12-17T07:21:20.572Z,101652
2017-12-17T07:23:49.574Z,101662
2017-12-17T07:26:17.847Z,101669
2017-12-17T07:28:46.077Z,101660
2017-12-17T07:31:14.294Z,101660
2017-12-17T07:33:42.548Z,101663
2017-12-17T07:36:10.789Z,101670
2017-12-17T07:38:39.778Z,101673
2017-12-17T07:41:08.827Z,101676
2017-12-17T07:43:37.083Z,101682
2017-12-17T07:46:05.302Z,101684
2017-12-17T07:48:33.525Z,101680
2017-12-17T07:51:01.746Z,101692
2017-12-17T07:53:29.981Z,101682
2017-12-17T07:55:58.211Z,101688
2017-12-17T07:58:26.430Z,101697
2017-12-17T08:00:54.735Z,101707
2017-12-17T08:03:23.096Z,101707
2017-12-17T08:05:51.330Z,101711
2017-12-17T08:08:20.406Z,101720
2017-12-17T08:10:48.630Z,101727
2017-12-17T08:13:16.952Z,101727
2017-12-17T08:15:45.299Z,101735
2017-12-17T08:18:13.551Z,101722
2017-12-17T08:20:42.660Z,101742
2017-12-17T08:23:10.937Z,101739
2017-12-17T08:25:39.175Z,101744
2017-12-17T08:28:08.170Z,101754
2017-12-17T08:30:37.179Z,101749
2017-12-17T08:33:05.580Z,101752
2017-12-17T08:35:33.838Z,101755
2017-12-17T08:38:02.131Z,101763
2017-12-17T08:40:30.361Z,101760
2017-12-17T08:42:58.684Z,101765
2017-12-17T08:45:26.938Z,101773
2017-12-17T08:47:55.154Z,101776
2017-12-17T08:50:23.374Z,101791
2017-12-17T08:52:52.406Z,101794
2017-12-17T08:55:20.684Z,101793
2017-12-17T08:57:48.912Z,101798
2017-12-17T09:00:18.710Z,101795
2017-12-17T09:02:47.294Z,101801
2017-12-17T09:05:15.541Z,101806
2017-12-17T09:07:43.798Z,101804
2017-12-17T09:10:12.084Z,101805
2017-12-17T09:12:40.316Z,101813
2017-12-17T09:15:10.162Z,101808
2017-12-17T09:17:38.402Z,101814
2017-12-17T09:20:07.414Z,101808
2017-12-17T09:22:35.756Z,101814
2017-12-17T09:25:03.946Z,101826
2017-12-17T09:27:33.025Z,101826
2017-12-17T09:30:01.301Z,101830
2017-12-17T09:32:29.554Z,101834
2017-12-17T09:34:57.783Z,101836
2017-12-17T09:37:27.641Z,101846
2017-12-17T09:39:57.610Z,101850
2017-12-17T09:42:26.593Z,101858
2017-12-17T09:44:54.803Z,101875
2017-12-17T09:47:23.031Z,101870
2017-12-17T09:49:51.361Z,101887
2017-12-17T09:52:19.614Z,101880
2017-12-17T09:54:48.614Z,101878
2017-12-17T09:57:16.874Z,101881
2017-12-17T09:59:45.959Z,101875
2017-12-17T10:02:14.943Z,101880
2017-12-17T10:04:43.286Z,101885
2017-12-17T10:07:11.463Z,101882
2017-12-17T10:09:39.745Z,101885
2017-12-17T10:12:07.994Z,101883
2017-12-17T10:14:36.267Z,101886
2017-12-17T10:17:04.526Z,101889
2017-12-17T10:19:33.622Z,101884
2017-12-17T10:22:01.898Z,101884
2017-12-17T10:24:32.930Z,101884
2017-12-17T10:27:01.914Z,101882
2017-12-17T10:29:30.133Z,101878
2017-12-17T10:31:58.334Z,101886
2017-12-17T10:34:26.536Z,101886
2017-12-17T10:36:54.744Z,101884
2017-12-17T10:39:23.119Z,101894
2017-12-17T10:41:51.322Z,101889
2017-12-17T10:44:19.600Z,101899
2017-12-17T10:46:49.003Z,101895
2017-12-17T10:49:17.312Z,101894
2017-12-17T10:51:48.419Z,101891
2017-12-17T10:54:16.866Z,101894
2017-12-17T10:56:45.099Z,101901
2017-12-17T10:59:13.434Z,101889
2017-12-17T11:01:41.700Z,101891
2017-12-17T11:04:10.033Z,101889
2017-12-17T11:06:38.301Z,101885
2017-12-17T11:09:06.570Z,101896
2017-12-17T11:11:34.804Z,101889
2017-12-17T11:14:03.179Z,101887
2017-12-17T11:16:31.482Z,101883
2017-12-17T11:18:59.702Z,101886
2017-12-17T11:21:27.902Z,101888
2017-12-17T11:23:56.923Z,101885
2017-12-17T11:26:25.274Z,101882
2017-12-17T11:28:54.368Z,101891
2017-12-17T11:31:23.370Z,101884
2017-12-17T11:33:51.666Z,101885
2017-12-17T11:36:20.848Z,101892
2017-12-17T11:38:49.130Z,101881
2017-12-17T11:41:17.445Z,101889
2017-12-17T11:43:45.703Z,101884
2017-12-17T11:46:14.054Z,101892
2017-12-17T11:48:42.320Z,101885
2017-12-17T11:51:10.551Z,101885
2017-12-17T11:53:38.772Z,101889
2017-12-17T11:56:07.802Z,101895
2017-12-17T11:58:36.079Z,101890
2017-12-17T12:01:04.354Z,101891
2017-12-17T12:03:32.593Z,101889
2017-12-17T12:06:01.588Z,101902
2017-12-17T12:08:30.574Z,101892
2017-12-17T12:10:59.613Z,101893
2017-12-17T12:13:27.837Z,101893
2017-12-17T12:15:56.905Z,101896
2017-12-17T12:18:25.180Z,101900
2017-12-17T12:20:53.524Z,101901
2017-12-17T12:23:21.835Z,101905
2017-12-17T12:25:50.355Z,101906
2017-12-17T12:28:19.386Z,101902
2017-12-17T12:30:47.632Z,101908
2017-12-17T12:33:15.861Z,101900
2017-12-17T12:35:44.115Z,101906
2017-12-17T12:38:12.334Z,101904
2017-12-17T12:40:40.584Z,101903
2017-12-17T12:43:08.815Z,101907
2017-12-17T12:45:37.214Z,101906
2017-12-17T12:48:05.479Z,101912
2017-12-17T12:50:33.725Z,101911
2017-12-17T12:53:01.970Z,101911
2017-12-17T12:55:30.189Z,101907
2017-12-17T12:57:59.198Z,101909
2017-12-17T13:00:27.493Z,101909
2017-12-17T13:02:55.758Z,101911
2017-12-17T13:05:24.006Z,101908
2017-12-17T13:07:52.982Z,101912
2017-12-17T13:10:21.259Z,101918
2017-12-17T13:12:49.512Z,101915
2017-12-17T13:15:19.395Z,101924
2017-12-17T13:17:47.669Z,101923
2017-12-17T13:20:15.879Z,101925
2017-12-17T13:22:44.109Z,101921
2017-12-17T13:25:12.333Z,101926
2017-12-17T13:27:40.549Z,101931
2017-12-17T13:30:09.535Z,101933
2017-12-17T13:32:38.545Z,101935
2017-12-17T13:35:06.789Z,101929
2017-12-17T13:37:35.037Z,101941
2017-12-17T13:40:03.242Z,101933
2017-12-17T13:42:31.479Z,101939
2017-12-17T13:44:59.742Z,101936
2017-12-17T13:47:27.967Z,101941
2017-12-17T13:49:56.176Z,101936
2017-12-17T13:52:24.398Z,101937
2017-12-17T13:54:52.563Z,101936
2017-12-17T13:57:20.803Z,101944
2017-12-17T13:59:49.090Z,101936
2017-12-17T14:02:17.348Z,101943
2017-12-17T14:04:45.579Z,101947
2017-12-17T14:07:13.883Z,101949
2017-12-17T14:09:42.918Z,101957
2017-12-17T14:12:11.851Z,101958
2017-12-17T14:14:40.090Z,101971
2017-12-17T14:17:08.320Z,101959
2017-12-17T14:19:37.330Z,101958
2017-12-17T14:22:05.526Z,101960
2017-12-17T14:24:33.719Z,101963
2017-12-17T14:27:02.082Z,101967
2017-12-17T14:29:30.314Z,101969
2017-12-17T14:31:59.295Z,101972
2017-12-17T14:34:27.585Z,101977
2017-12-17T14:36:55.850Z,101977
2017-12-17T14:39:24.132Z,101979
2017-12-17T14:41:52.375Z,101981
2017-12-17T14:44:20.709Z,101975
2017-12-17T14:46:48.947Z,101980
2017-12-17T14:49:17.184Z,101983
2017-12-17T14:51:45.398Z,101980
2017-12-17T14:54:13.639Z,101988
2017-12-17T14:56:41.911Z,101984
2017-12-17T14:59:10.157Z,101992
2017-12-17T15:01:38.580Z,101989
2017-12-17T15:04:06.828Z,101995
2017-12-17T15:06:35.064Z,101992
2017-12-17T15:09:03.319Z,101996
2017-12-17T15:11:31.535Z,101989
2017-12-17T15:14:00.526Z,101992
2017-12-17T15:16:29.904Z,101992
2017-12-17T15:18:58.195Z,101993
2017-12-17T15:21:27.213Z,101989
2017-12-17T15:23:56.334Z,101996
2017-12-17T15:26:24.650Z,101990
2017-12-17T15:28:52.881Z,102001
2017-12-17T15:31:22.638Z,102003
2017-12-17T15:33:50.856Z,102003
2017-12-17T15:36:19.063Z,102010
2017-12-17T15:38:48.179Z,102002
2017-12-17T15:41:16.455Z,101998
2017-12-17T15:43:44.677Z,102001
2017-12-17T15:46:12.967Z,102009
2017-12-17T15:48:41.238Z,102012
2017-12-17T15:51:09.456Z,102012
2017-12-17T15:53:37.703Z,102010
2017-12-17T15:56:06.048Z,102006
2017-12-17T15:58:34.398Z,102009
2017-12-17T16:01:02.708Z,102010
2017-12-17T16:03:31.554Z,102008
2017-12-17T16:05:59.831Z,102009
2017-12-17T16:08:28.064Z,102015
2017-12-17T16:10:56.366Z,102016
2017-12-17T16:13:24.660Z,102025
2017-12-17T16:15:52.901Z,102024
2017-12-17T16:18:21.419Z,102021
2017-12-17T16:20:49.747Z,102013
2017-12-17T16:23:18.064Z,102016
2017-12-17T16:25:46.501Z,102017
2017-12-17T16:28:14.768Z,102010
2017-12-17T16:30:43.188Z,102011
2017-12-17T16:33:11.482Z,102006
2017-12-17T16:35:39.700Z,102008
2017-12-17T16:38:08.008Z,102010
2017-12-17T16:40:36.305Z,102011
2017-12-17T16:43:04.605Z,102016
2017-12-17T16:45:33.436Z,102022
2017-12-17T16:48:01.885Z,102016
2017-12-17T16:50:30.970Z,102023
2017-12-17T16:53:01.201Z,102020
2017-12-17T16:55:29.523Z,102029
2017-12-17T16:57:57.806Z,102011
2017-12-17T17:00:26.833Z,102016
2017-12-17T17:02:55.157Z,102018
2017-12-17T17:05:23.438Z,102013
2017-12-17T17:07:51.720Z,102010
2017-12-17T17:10:20.068Z,102011
2017-12-17T17:12:48.313Z,102011
2017-12-17T17:15:16.664Z,102016
2017-12-17T17:17:44.969Z,102006
2017-12-17T17:20:13.193Z,102016
2017-12-17T17:22:41.559Z,102010
2017-12-17T17:25:09.899Z,102003
2017-12-17T17:27:38.169Z,101992
2017-12-17T17:30:06.421Z,101994
2017-12-17T17:32:34.722Z,101980
2017-12-17T17:35:03.108Z,101987
2017-12-17T17:37:32.383Z,101989
2017-12-17T17:40:00.678Z,101990
2017-12-17T17:42:29.317Z,101992
2017-12-17T17:45:02.212Z,101988
2017-12-17T17:47:30.523Z,101991
2017-12-17T17:49:58.783Z,101992
2017-12-17T17:52:27.020Z,101985
2017-12-17T17:54:55.362Z,101990
2017-12-17T17:57:23.738Z,101978
2017-12-17T17:59:52.478Z,101976
2017-12-17T18:02:20.770Z,101979
2017-12-17T18:04:49.031Z,101980
2017-12-17T18:07:17.300Z,101982
2017-12-17T18:09:45.554Z,101976
2017-12-17T18:12:14.623Z,101986
2017-12-17T18:14:42.921Z,101988
2017-12-17T18:17:11.982Z,101985
2017-12-17T18:19:40.279Z,101985
2017-12-17T18:22:08.522Z,101978
2017-12-17T18:24:36.768Z,101979
2017-12-17T18:27:05.059Z,101974
2017-12-17T18:29:34.116Z,101969
2017-12-17T18:32:02.531Z,101967
2017-12-17T18:34:30.772Z,101969
2017-12-17T18:36:59.791Z,101972
2017-12-17T18:39:28.855Z,101974
2017-12-17T18:41:57.109Z,101975
2017-12-17T18:44:25.347Z,101981
2017-12-17T18:46:53.659Z,101974
2017-12-17T18:49:21.915Z,101976
2017-12-17T18:51:50.151Z,101975
2017-12-17T18:54:18.562Z,101978
2017-12-17T18:56:46.883Z,101982
2017-12-17T18:59:15.142Z,101979
2017-12-17T19:01:43.391Z,101973
2017-12-17T19:04:11.654Z,101977
2017-12-17T19:06:39.898Z,101981
2017-12-17T19:09:08.155Z,101982
2017-12-17T19:11:36.479Z,101981
2017-12-17T19:14:04.718Z,101973
2017-12-17T19:16:32.945Z,101967
2017-12-17T19:19:01.167Z,101965
2017-12-17T19:21:29.391Z,101966
2017-12-17T19:23:57.748Z,101972
2017-12-17T19:26:26.797Z,101958
2017-12-17T19:28:55.128Z,101961
2017-12-17T19:31:23.467Z,101972
2017-12-17T19:33:51.845Z,101978
2017-12-17T19:36:20.117Z,101972
2017-12-17T19:38:49.920Z,101974
2017-12-17T19:41:19.172Z,101973
2017-12-17T19:43:47.446Z,101973
2017-12-17T19:46:15.748Z,101978
2017-12-17T19:48:44.050Z,101978
2017-12-17T19:51:12.355Z,101990
2017-12-17T19:53:41.396Z,101983
2017-12-17T19:56:09.730Z,101984
2017-12-17T19:58:38.051Z,101982
2017-12-17T20:01:06.940Z,101980
2017-12-17T20:03:35.220Z,101991
2017-12-17T20:06:03.610Z,101991
2017-12-17T20:08:31.888Z,101993
2017-12-17T20:11:00.172Z,101994
2017-12-17T20:13:28.441Z,101994
2017-12-17T20:15:56.723Z,102002
2017-12-17T20:18:27.787Z,102000
2017-12-17T20:20:56.095Z,102002
2017-12-17T20:23:24.360Z,101998
2017-12-17T20:25:53.437Z,101998
2017-12-17T20:28:23.633Z,102000
2017-12-17T20:30:51.951Z,101996
2017-12-17T20:33:21.047Z,101997
2017-12-17T20:35:50.085Z,101996
2017-12-17T20:38:18.547Z,101986
2017-12-17T20:40:46.827Z,101989
2017-12-17T20:43:15.127Z,101985
2017-12-17T20:45:43.406Z,101991
2017-12-17T20:48:11.710Z,101997
2017-12-17T20:50:39.960Z,101997
2017-12-17T20:53:08.257Z,101995
2017-12-17T20:55:36.550Z,101981
2017-12-17T20:58:04.816Z,101983
2017-12-17T21:00:33.071Z,101977
2017-12-17T21:03:01.320Z,101983
2017-12-17T21:05:29.573Z,101972
2017-12-17T21:07:58.608Z,101973
2017-12-17T21:10:26.868Z,101984
2017-12-17T21:12:55.127Z,101974
2017-12-17T21:15:23.503Z,101979
2017-12-17T21:17:52.591Z,101973
2017-12-17T21:20:20.870Z,101964
2017-12-17T21:22:49.552Z,101970
2017-12-17T21:25:17.877Z,101971
2017-12-17T21:27:46.160Z,101974
2017-12-17T21:30:15.168Z,101968
2017-12-17T21:32:43.484Z,101960
2017-12-17T21:35:11.749Z,101964
2017-12-17T21:37:40.016Z,101959
2017-12-17T21:40:09.027Z,101957
2017-12-17T21:42:38.222Z,101959
2017-12-17T21:45:07.419Z,101954
2017-12-17T21:47:37.636Z,101951
2017-12-17T21:50:06.059Z,101955
2017-12-17T21:52:35.197Z,101947
2017-12-17T21:55:03.447Z,101947
2017-12-17T21:57:31.707Z,101947
2017-12-17T22:00:01.784Z,101942
2017-12-17T22:02:30.879Z,101940
2017-12-17T22:04:59.998Z,101943
2017-12-17T22:07:28.247Z,101942
2017-12-17T22:09:56.525Z,101944
2017-12-17T22:12:25.598Z,101936
2017-12-17T22:14:53.830Z,101935
2017-12-17T22:17:22.102Z,101938
2017-12-17T22:19:50.439Z,101937
2017-12-17T22:22:18.678Z,101934
2017-12-17T22:24:47.023Z,101931
2017-12-17T22:27:15.279Z,101939
2017-12-17T22:29:43.537Z,101931
2017-12-17T22:32:11.797Z,101928
2017-12-17T22:34:40.025Z,101921
2017-12-17T22:37:08.283Z,101921
2017-12-17T22:39:37.960Z,101910
2017-12-17T22:42:06.217Z,101901
2017-12-17T22:44:34.547Z,101901
2017-12-17T22:47:03.632Z,101913
2017-12-17T22:49:31.887Z,101910
2017-12-17T22:52:00.177Z,101900
2017-12-17T22:54:28.449Z,101894
2017-12-17T22:56:58.911Z,101889
2017-12-17T22:59:27.999Z,101896
2017-12-17T23:01:57.036Z,101900
2017-12-17T23:04:25.300Z,101904
2017-12-17T23:06:53.549Z,101895
2017-12-17T23:09:21.911Z,101892
2017-12-17T23:11:50.240Z,101892
2017-12-17T23:14:18.541Z,101895
2017-12-17T23:16:46.801Z,101892
2017-12-17T23:19:15.383Z,101892
2017-12-17T23:21:44.387Z,101877
2017-12-17T23:24:12.654Z,101886
2017-12-17T23:26:40.936Z,101882
2017-12-17T23:29:09.174Z,101886
2017-12-17T23:31:37.468Z,101891
2017-12-17T23:34:05.719Z,101872
2017-12-17T23:36:34.750Z,101873
2017-12-17T23:39:03.024Z,101882
2017-12-17T23:41:31.436Z,101878
2017-12-17T23:43:59.715Z,101876
2017-12-17T23:46:27.999Z,101869
2017-12-17T23:48:57.049Z,101861
2017-12-17T23:51:25.383Z,101862
2017-12-17T23:53:54.747Z,101862
2017-12-17T23:56:22.972Z,101865
2017-12-17T23:58:51.650Z,101857
